首页
METAR-TAF:

METAR-TAF

机场 :

巴格達國際機場

巴格达, 伊拉克

纬度: 33-15-45N, 经度: 44-14-04E, 海拔: 35米

当前天气观测

该预报发布于27分钟前的07:00 UTC
风速3节,风向多变
温度 24°C
湿度 38%
气压 1016 hPa
能见度10公里或以上
少量云层高于3500英尺
多云层高于20000英尺

METAR: ORBI 030700Z VRB03KT 9999 FEW035 BKN200 24/09 Q1016

时间: 10:27 (07:27 UTC)

预报

该预报发布于3小时和27分钟前的04:00 UTC
预报有效从03日的 06点(UTC)到 04日的 06点(UTC)
风速3节,风向多变
能見度: 8000
散云层高于4000英尺

TAF: ORBI 030400Z 0306/0406 VRB03KT 8000 SCT040

超过4000个机场的气象观测和天气预报(METAR&TAF报告)。

可查询的气象台以黄色和红色小点在地图上表示。

将鼠标移到小点上方,可查看气象台名称。

然后点击查看天气观测和预报。

如需切换地图:点击带黑十字的绿色按钮放大地图;点击带横线的绿色按钮缩小地图;或者点击绿色箭头查看邻近地区的地图。


METAR-TAF: